createdAt,value
2022-10-18T00:00:08.503Z,7.45
2022-10-18T00:02:57.680Z,7.43
2022-10-18T00:05:24.223Z,7.37
2022-10-18T00:07:50.873Z,7.36
2022-10-18T00:10:18.441Z,7.36
2022-10-18T00:15:11.838Z,7.32
2022-10-18T00:17:39.110Z,7.30
2022-10-18T00:20:06.397Z,7.26
2022-10-18T00:22:38.533Z,7.23
2022-10-18T00:25:06.626Z,7.23
2022-10-18T00:27:34.012Z,7.21
2022-10-18T00:30:00.772Z,7.19
2022-10-18T00:32:27.411Z,7.08
2022-10-18T00:34:53.986Z,7.10
2022-10-18T00:37:20.713Z,7.07
2022-10-18T00:39:47.434Z,7.07
2022-10-18T00:42:19.353Z,7.03
2022-10-18T00:44:45.882Z,7.04
2022-10-18T00:47:15.744Z,6.99
2022-10-18T00:49:46.530Z,6.99
2022-10-18T00:52:17.913Z,7.02
2022-10-18T00:54:46.542Z,7.06
2022-10-18T00:57:13.749Z,7.06
2022-10-18T00:59:42.228Z,7.07
2022-10-18T01:02:09.063Z,7.08
2022-10-18T01:04:35.842Z,7.08
2022-10-18T01:07:21.469Z,7.08
2022-10-18T01:10:18.151Z,7.04
2022-10-18T01:13:25.729Z,7.02
2022-10-18T01:16:04.913Z,6.96
2022-10-18T01:18:41.012Z,6.93
2022-10-18T01:21:14.533Z,6.96
2022-10-18T01:24:08.666Z,6.99
2022-10-18T01:27:13.238Z,7.02
2022-10-18T01:29:58.268Z,7.02
2022-10-18T01:32:30.140Z,7.04
2022-10-18T01:35:01.051Z,7.04
2022-10-18T01:37:29.918Z,7.05
2022-10-18T01:39:59.290Z,7.05
2022-10-18T01:42:26.790Z,7.08
2022-10-18T01:44:54.329Z,7.10
2022-10-18T01:47:21.626Z,7.11
2022-10-18T01:49:48.339Z,7.14
2022-10-18T01:52:16.126Z,7.14
2022-10-18T01:54:49.786Z,7.17
2022-10-18T01:57:38.503Z,7.17
2022-10-18T02:00:18.876Z,7.18
2022-10-18T02:02:53.365Z,7.16
2022-10-18T02:05:35.460Z,7.15
2022-10-18T02:08:26.579Z,7.13
2022-10-18T02:11:08.887Z,7.11
2022-10-18T02:14:10.773Z,7.11
2022-10-18T02:16:43.053Z,7.12
2022-10-18T02:21:59.401Z,7.07
2022-10-18T02:24:33.966Z,7.04
2022-10-18T02:27:01.090Z,7.01
2022-10-18T02:29:29.057Z,7.03
2022-10-18T02:32:09.523Z,7.01
2022-10-18T02:34:54.875Z,6.96
2022-10-18T02:37:22.609Z,6.95
2022-10-18T02:39:51.031Z,6.93
2022-10-18T02:42:17.685Z,6.89
2022-10-18T02:44:44.378Z,6.89
2022-10-18T02:47:11.957Z,6.91
2022-10-18T02:49:38.625Z,6.90
2022-10-18T02:52:05.239Z,6.90
2022-10-18T02:54:31.953Z,6.90
2022-10-18T02:56:58.533Z,6.91
2022-10-18T02:59:25.138Z,6.94
2022-10-18T03:01:51.789Z,6.95
2022-10-18T03:04:18.670Z,6.93
2022-10-18T03:06:45.368Z,6.92
2022-10-18T03:09:12.073Z,6.92
2022-10-18T03:11:38.585Z,6.92
2022-10-18T03:14:05.245Z,6.93
2022-10-18T03:16:33.326Z,6.92
2022-10-18T03:19:00.006Z,6.92
2022-10-18T03:21:26.652Z,6.91
2022-10-18T03:23:53.124Z,6.92
2022-10-18T03:26:21.011Z,6.93
2022-10-18T03:28:47.767Z,6.95
2022-10-18T03:31:14.538Z,6.95
2022-10-18T03:33:41.205Z,6.95
2022-10-18T03:36:07.793Z,6.95
2022-10-18T03:38:34.449Z,6.95
2022-10-18T03:41:01.196Z,6.91
2022-10-18T03:43:27.791Z,6.91
2022-10-18T03:45:54.384Z,6.88
2022-10-18T03:48:20.900Z,6.85
2022-10-18T03:50:47.466Z,6.85
2022-10-18T03:53:14.199Z,6.85
2022-10-18T03:55:40.933Z,6.85
2022-10-18T03:58:07.625Z,6.82
2022-10-18T04:00:34.933Z,6.80
2022-10-18T04:03:01.541Z,6.79
2022-10-18T04:05:30.345Z,6.80
2022-10-18T04:07:57.873Z,6.81
2022-10-18T04:10:25.472Z,6.83
2022-10-18T04:12:52.209Z,6.85
2022-10-18T04:15:18.933Z,6.86
2022-10-18T04:17:45.957Z,6.86
2022-10-18T04:20:13.248Z,6.83
2022-10-18T04:22:40.486Z,6.81
2022-10-18T04:25:07.696Z,6.81
2022-10-18T04:27:35.610Z,6.79
2022-10-18T04:30:03.381Z,6.81
2022-10-18T04:32:30.294Z,6.85
2022-10-18T04:34:56.906Z,6.87
2022-10-18T04:37:23.566Z,6.87
2022-10-18T04:39:53.465Z,6.87
2022-10-18T04:42:21.408Z,6.88
2022-10-18T04:44:48.243Z,6.88
2022-10-18T04:47:15.682Z,6.89
2022-10-18T04:49:42.803Z,6.89
2022-10-18T04:52:09.624Z,6.87
2022-10-18T04:54:37.036Z,6.86
2022-10-18T04:57:03.722Z,6.88
2022-10-18T04:59:30.397Z,6.90
2022-10-18T05:01:57.141Z,6.91
2022-10-18T05:04:23.836Z,6.92
2022-10-18T05:06:50.401Z,6.90
2022-10-18T05:09:17.414Z,6.95
2022-10-18T05:11:43.928Z,6.98
2022-10-18T05:14:10.682Z,7.00
2022-10-18T05:16:37.328Z,7.05
2022-10-18T05:19:05.249Z,7.14
2022-10-18T05:21:32.721Z,7.21
2022-10-18T05:23:59.510Z,7.30
2022-10-18T05:26:26.141Z,7.41
2022-10-18T05:28:52.797Z,7.49
2022-10-18T05:31:19.648Z,7.61
2022-10-18T05:33:46.567Z,7.69
2022-10-18T05:36:13.580Z,7.78
2022-10-18T05:38:44.929Z,7.88
2022-10-18T05:41:12.177Z,7.96
2022-10-18T05:43:40.070Z,7.99
2022-10-18T05:46:11.872Z,8.09
2022-10-18T05:48:43.710Z,8.21
2022-10-18T05:51:11.112Z,8.35
2022-10-18T05:53:38.355Z,8.45
2022-10-18T05:56:06.491Z,8.53
2022-10-18T05:58:34.431Z,8.64
2022-10-18T06:01:01.893Z,8.73
2022-10-18T06:03:30.048Z,8.87
2022-10-18T06:06:08.472Z,9.01
2022-10-18T06:08:36.067Z,9.15
2022-10-18T06:11:08.065Z,9.28
2022-10-18T06:13:34.797Z,9.43
2022-10-18T06:16:01.572Z,9.57
2022-10-18T06:18:29.137Z,9.72
2022-10-18T06:20:58.260Z,9.83
2022-10-18T06:23:26.492Z,9.95
2022-10-18T06:25:53.694Z,10.08
2022-10-18T06:28:20.333Z,10.21
2022-10-18T06:30:47.101Z,10.38
2022-10-18T06:33:14.064Z,10.54
2022-10-18T06:35:40.909Z,10.74
2022-10-18T06:38:07.580Z,10.88
2022-10-18T06:40:37.396Z,11.01
2022-10-18T06:43:20.207Z,11.13
2022-10-18T06:45:49.629Z,11.22
2022-10-18T06:50:59.780Z,11.52
2022-10-18T06:53:29.681Z,11.72
2022-10-18T06:56:02.157Z,11.90
2022-10-18T06:58:30.411Z,12.13
2022-10-18T07:00:57.955Z,12.34
2022-10-18T07:03:25.745Z,12.55
2022-10-18T07:05:52.420Z,12.74
2022-10-18T07:08:18.972Z,12.93
2022-10-18T07:10:53.150Z,13.10
2022-10-18T07:13:32.121Z,13.30
2022-10-18T07:16:05.332Z,13.47
2022-10-18T07:18:34.057Z,13.64
2022-10-18T07:21:04.765Z,13.83
2022-10-18T07:23:34.575Z,14.04
2022-10-18T07:26:03.655Z,14.22
2022-10-18T07:28:30.645Z,14.36
2022-10-18T07:30:59.417Z,14.46
2022-10-18T07:33:28.914Z,14.61
2022-10-18T07:35:55.646Z,14.73
2022-10-18T07:38:23.138Z,14.89
2022-10-18T07:40:56.987Z,15.01
2022-10-18T07:43:24.210Z,15.18
2022-10-18T07:45:56.228Z,15.31
2022-10-18T07:48:24.297Z,15.40
2022-10-18T07:50:51.623Z,15.52
2022-10-18T07:53:18.373Z,15.63
2022-10-18T07:55:45.193Z,15.74
2022-10-18T07:58:12.361Z,15.79
2022-10-18T08:00:39.878Z,15.86
2022-10-18T08:03:06.467Z,15.92
2022-10-18T08:08:07.969Z,15.97
2022-10-18T08:10:35.578Z,15.97
2022-10-18T08:13:02.409Z,15.95
2022-10-18T08:15:29.357Z,16.02
2022-10-18T08:17:56.234Z,16.09
2022-10-18T08:20:31.348Z,16.22
2022-10-18T08:23:00.284Z,16.31
2022-10-18T08:25:30.024Z,16.37
2022-10-18T08:27:57.287Z,16.44
2022-10-18T08:30:24.096Z,16.53
2022-10-18T08:32:50.633Z,16.59
2022-10-18T08:35:17.349Z,16.60
2022-10-18T08:37:44.864Z,16.59
2022-10-18T08:40:15.281Z,16.62
2022-10-18T08:42:57.658Z,16.73
2022-10-18T08:45:41.027Z,16.84
2022-10-18T08:48:38.836Z,16.97
2022-10-18T08:51:17.029Z,17.04
2022-10-18T08:53:55.457Z,17.12
2022-10-18T08:56:24.152Z,17.16
2022-10-18T08:58:51.087Z,17.21
2022-10-18T09:01:35.781Z,17.27
2022-10-18T09:04:21.482Z,17.33
2022-10-18T09:06:57.249Z,17.35
2022-10-18T09:09:39.488Z,17.37
2022-10-18T09:12:31.051Z,17.42
2022-10-18T09:15:15.589Z,17.48
2022-10-18T09:18:03.718Z,17.54
2022-10-18T09:20:39.467Z,17.67
2022-10-18T09:23:21.325Z,17.82
2022-10-18T09:25:55.048Z,17.76
2022-10-18T09:28:37.951Z,17.68
2022-10-18T09:31:16.149Z,17.79
2022-10-18T09:33:51.946Z,17.87
2022-10-18T09:36:26.449Z,17.90
2022-10-18T09:39:01.549Z,17.89
2022-10-18T09:41:37.607Z,17.96
2022-10-18T09:44:19.353Z,18.08
2022-10-18T09:46:51.621Z,18.09
2022-10-18T09:49:25.006Z,18.13
2022-10-18T09:51:53.509Z,18.19
2022-10-18T09:54:46.995Z,18.26
2022-10-18T09:57:26.095Z,18.34
2022-10-18T09:59:52.854Z,18.43
2022-10-18T10:02:22.354Z,18.46
2022-10-18T10:04:55.870Z,18.53
2022-10-18T10:07:31.177Z,18.61
2022-10-18T10:10:04.019Z,18.69
2022-10-18T10:12:34.430Z,18.79
2022-10-18T10:15:13.367Z,18.84
2022-10-18T10:17:39.981Z,18.89
2022-10-18T10:20:22.771Z,18.99
2022-10-18T10:22:51.100Z,19.03
2022-10-18T10:25:34.209Z,19.12
2022-10-18T10:28:14.692Z,19.17
2022-10-18T10:30:42.057Z,19.12
2022-10-18T10:33:35.746Z,19.10
2022-10-18T10:36:15.281Z,19.15
2022-10-18T10:38:42.241Z,19.25
2022-10-18T10:41:27.379Z,19.33
2022-10-18T10:43:54.227Z,19.33
2022-10-18T10:46:22.609Z,19.41
2022-10-18T10:49:15.333Z,19.51
2022-10-18T10:51:43.061Z,19.52
2022-10-18T10:54:14.515Z,19.50
2022-10-18T10:56:56.161Z,19.55
2022-10-18T10:59:25.903Z,19.61
2022-10-18T11:02:14.674Z,19.60
2022-10-18T11:04:42.436Z,19.61
2022-10-18T11:07:16.220Z,19.63
2022-10-18T11:10:02.050Z,19.66
2022-10-18T11:12:42.375Z,19.68
2022-10-18T11:15:18.167Z,19.64
2022-10-18T11:18:00.255Z,19.70
2022-10-18T11:20:56.529Z,19.78
2022-10-18T11:23:31.200Z,19.81
2022-10-18T11:26:14.007Z,19.80
2022-10-18T11:29:05.064Z,19.84
2022-10-18T11:31:31.712Z,19.84
2022-10-18T11:34:19.921Z,19.80
2022-10-18T11:37:29.474Z,19.91
2022-10-18T11:40:25.803Z,19.90
2022-10-18T11:43:30.315Z,19.87
2022-10-18T11:46:15.466Z,19.85
2022-10-18T11:49:03.824Z,19.83
2022-10-18T11:51:50.251Z,19.81
2022-10-18T11:54:36.765Z,19.82
2022-10-18T11:57:13.212Z,19.82
2022-10-18T11:59:49.175Z,19.81
2022-10-18T12:02:43.111Z,19.74
2022-10-18T12:05:23.220Z,19.66
2022-10-18T12:08:18.785Z,19.70
2022-10-18T12:11:04.675Z,19.67
2022-10-18T12:13:42.691Z,19.64
2022-10-18T12:16:10.591Z,19.53
2022-10-18T12:21:25.404Z,19.71
2022-10-18T12:23:57.879Z,19.80
2022-10-18T12:26:27.809Z,19.89
2022-10-18T12:29:19.825Z,19.88
2022-10-18T12:31:59.175Z,19.97
2022-10-18T12:34:28.955Z,20.03
2022-10-18T12:37:07.750Z,20.05
2022-10-18T12:40:11.430Z,20.10
2022-10-18T12:42:44.803Z,19.85
2022-10-18T12:45:17.275Z,19.83
2022-10-18T12:47:44.033Z,19.75
2022-10-18T12:50:38.345Z,19.72
2022-10-18T12:53:11.718Z,19.82
2022-10-18T12:55:40.529Z,19.81
2022-10-18T12:58:13.329Z,19.85
2022-10-18T13:00:42.899Z,19.88
2022-10-18T13:03:10.105Z,19.92
2022-10-18T13:05:53.960Z,19.83
2022-10-18T13:08:33.392Z,19.86
2022-10-18T13:11:09.487Z,19.77
2022-10-18T13:13:58.954Z,19.75
2022-10-18T13:16:47.186Z,19.65
2022-10-18T13:19:22.633Z,19.54
2022-10-18T13:22:10.806Z,19.42
2022-10-18T13:24:42.013Z,19.47
2022-10-18T13:27:35.087Z,19.43
2022-10-18T13:30:17.972Z,19.44
2022-10-18T13:33:05.807Z,19.44
2022-10-18T13:35:57.950Z,19.45
2022-10-18T13:38:33.683Z,19.52
2022-10-18T13:41:15.756Z,19.49
2022-10-18T13:43:52.693Z,19.46
2022-10-18T13:46:21.779Z,19.43
2022-10-18T13:48:54.364Z,19.41
2022-10-18T13:51:46.191Z,19.32
2022-10-18T13:54:31.311Z,19.29
2022-10-18T13:57:13.238Z,19.29
2022-10-18T14:00:14.232Z,19.27
2022-10-18T14:03:16.268Z,19.21
2022-10-18T14:05:50.844Z,19.13
2022-10-18T14:08:24.099Z,19.10
2022-10-18T14:11:09.483Z,19.06
2022-10-18T14:13:45.243Z,19.02
2022-10-18T14:16:34.938Z,18.99
2022-10-18T14:19:42.367Z,18.95
2022-10-18T14:22:23.223Z,18.83
2022-10-18T14:24:53.833Z,18.81
2022-10-18T14:27:21.805Z,18.80
2022-10-18T14:29:49.812Z,18.78
2022-10-18T14:32:28.359Z,18.74
2022-10-18T14:35:09.211Z,18.68
2022-10-18T14:37:42.769Z,18.63
2022-10-18T14:40:25.513Z,18.59
2022-10-18T14:42:52.299Z,18.55
2022-10-18T14:45:20.788Z,18.49
2022-10-18T14:47:50.690Z,18.46
2022-10-18T14:50:25.462Z,18.40
2022-10-18T14:52:54.834Z,18.33
2022-10-18T14:55:25.062Z,18.25
2022-10-18T14:57:51.956Z,18.18
2022-10-18T15:00:27.672Z,18.11
2022-10-18T15:02:54.285Z,18.05
2022-10-18T15:05:24.336Z,17.99
2022-10-18T15:07:53.050Z,17.91
2022-10-18T15:10:24.853Z,17.82
2022-10-18T15:13:09.237Z,17.71
2022-10-18T15:15:37.650Z,17.60
2022-10-18T15:18:06.270Z,17.49
2022-10-18T15:20:41.616Z,17.37
2022-10-18T15:23:30.682Z,17.26
2022-10-18T15:26:11.796Z,17.12
2022-10-18T15:28:53.164Z,16.99
2022-10-18T15:31:32.559Z,16.88
2022-10-18T15:34:19.924Z,16.78
2022-10-18T15:36:48.287Z,16.68
2022-10-18T15:39:21.397Z,16.58
2022-10-18T15:41:59.776Z,16.43
2022-10-18T15:44:34.221Z,16.31
2022-10-18T15:47:13.313Z,16.18
2022-10-18T15:49:45.984Z,16.03
2022-10-18T15:52:38.249Z,15.90
2022-10-18T15:55:30.656Z,15.75
2022-10-18T15:58:31.485Z,15.59
2022-10-18T16:01:02.105Z,15.45
2022-10-18T16:03:35.701Z,15.35
2022-10-18T16:06:07.621Z,15.23
2022-10-18T16:08:40.467Z,15.10
2022-10-18T16:11:13.288Z,14.98
2022-10-18T16:13:40.110Z,14.85
2022-10-18T16:16:10.791Z,14.73
2022-10-18T16:18:37.567Z,14.64
2022-10-18T16:21:04.270Z,14.52
2022-10-18T16:23:30.892Z,14.39
2022-10-18T16:25:57.587Z,14.26
2022-10-18T16:28:25.446Z,14.17
2022-10-18T16:31:00.745Z,14.05
2022-10-18T16:33:27.716Z,13.88
2022-10-18T16:35:54.699Z,13.77
2022-10-18T16:38:34.165Z,13.68
2022-10-18T16:41:04.495Z,13.58
2022-10-18T16:43:31.657Z,13.50
2022-10-18T16:45:58.542Z,13.44
2022-10-18T16:48:25.319Z,13.37
2022-10-18T16:50:54.793Z,13.30
2022-10-18T16:53:24.402Z,13.20
2022-10-18T16:56:01.828Z,13.11
2022-10-18T16:58:30.641Z,13.01
2022-10-18T17:00:58.874Z,12.91
2022-10-18T17:03:26.173Z,12.81
2022-10-18T17:05:53.558Z,12.67
2022-10-18T17:08:26.229Z,12.55
2022-10-18T17:10:56.954Z,12.50
2022-10-18T17:13:25.256Z,12.41
2022-10-18T17:15:52.781Z,12.33
2022-10-18T17:18:22.347Z,12.25
2022-10-18T17:20:49.506Z,12.17
2022-10-18T17:23:16.145Z,12.14
2022-10-18T17:25:57.367Z,12.11
2022-10-18T17:28:30.825Z,12.06
2022-10-18T17:30:57.674Z,12.01
2022-10-18T17:33:24.346Z,11.96
2022-10-18T17:35:51.207Z,11.91
2022-10-18T17:38:17.899Z,11.87
2022-10-18T17:40:44.502Z,11.82
2022-10-18T17:43:13.240Z,11.77
2022-10-18T17:45:54.191Z,11.74
2022-10-18T17:48:23.303Z,11.71
2022-10-18T17:50:50.299Z,11.66
2022-10-18T17:53:21.896Z,11.61
2022-10-18T17:55:49.056Z,11.57
2022-10-18T17:58:15.907Z,11.52
2022-10-18T18:00:42.554Z,11.47
2022-10-18T18:03:09.310Z,11.44
2022-10-18T18:05:36.135Z,11.38
2022-10-18T18:08:04.090Z,11.32
2022-10-18T18:10:34.138Z,11.26
2022-10-18T18:13:01.909Z,11.16
2022-10-18T18:15:29.289Z,11.07
2022-10-18T18:17:57.366Z,10.95
2022-10-18T18:20:25.947Z,10.89
2022-10-18T18:22:52.685Z,10.89
2022-10-18T18:25:19.488Z,10.86
2022-10-18T18:27:46.035Z,10.81
2022-10-18T18:30:13.753Z,10.77
2022-10-18T18:32:40.432Z,10.74
2022-10-18T18:35:07.495Z,10.73
2022-10-18T18:37:34.213Z,10.72
2022-10-18T18:40:00.833Z,10.68
2022-10-18T18:42:27.557Z,10.65
2022-10-18T18:44:54.178Z,10.63
2022-10-18T18:47:22.788Z,10.57
2022-10-18T18:49:50.887Z,10.52
2022-10-18T18:52:17.657Z,10.51
2022-10-18T18:54:44.569Z,10.44
2022-10-18T18:57:11.254Z,10.44
2022-10-18T18:59:37.862Z,10.46
2022-10-18T19:02:05.066Z,10.47
2022-10-18T19:04:32.165Z,10.47
2022-10-18T19:06:58.836Z,10.47
2022-10-18T19:09:26.818Z,10.44
2022-10-18T19:11:55.758Z,10.43
2022-10-18T19:14:25.220Z,10.41
2022-10-18T19:16:58.237Z,10.42
2022-10-18T19:19:27.794Z,10.40
2022-10-18T19:22:00.236Z,10.35
2022-10-18T19:24:31.871Z,10.24
2022-10-18T19:27:01.777Z,10.21
2022-10-18T19:29:33.966Z,10.22
2022-10-18T19:32:04.290Z,10.26
2022-10-18T19:34:31.975Z,10.26
2022-10-18T19:36:58.632Z,10.26
2022-10-18T19:39:33.795Z,10.23
2022-10-18T19:42:03.853Z,10.15
2022-10-18T19:44:32.473Z,10.08
2022-10-18T19:46:59.595Z,10.01
2022-10-18T19:49:28.281Z,9.90
2022-10-18T19:51:55.843Z,9.85
2022-10-18T19:54:23.603Z,9.77
2022-10-18T19:56:50.557Z,9.67
2022-10-18T19:59:17.285Z,9.62
2022-10-18T20:01:44.846Z,9.56
2022-10-18T20:04:12.849Z,9.46
2022-10-18T20:06:40.746Z,9.40
2022-10-18T20:09:09.547Z,9.35
2022-10-18T20:11:36.001Z,9.30
2022-10-18T20:14:04.970Z,9.28
2022-10-18T20:16:33.208Z,9.27
2022-10-18T20:19:02.060Z,9.27
2022-10-18T20:21:29.065Z,9.25
2022-10-18T20:23:56.269Z,9.22
2022-10-18T20:26:24.787Z,9.19
2022-10-18T20:28:56.021Z,9.17
2022-10-18T20:31:30.858Z,9.12
2022-10-18T20:34:00.231Z,9.09
2022-10-18T20:36:29.418Z,9.07
2022-10-18T20:38:57.306Z,9.07
2022-10-18T20:41:27.539Z,9.05
2022-10-18T20:43:56.594Z,9.01
2022-10-18T20:46:24.330Z,9.02
2022-10-18T20:48:52.154Z,9.02
2022-10-18T20:51:19.947Z,9.04
2022-10-18T20:53:46.703Z,9.03
2022-10-18T20:56:21.757Z,9.02
2022-10-18T20:58:50.727Z,9.00
2022-10-18T21:01:20.304Z,8.95
2022-10-18T21:03:48.598Z,8.91
2022-10-18T21:06:27.005Z,8.83
2022-10-18T21:09:01.745Z,8.69
2022-10-18T21:11:30.269Z,8.60
2022-10-18T21:14:01.994Z,8.59
2022-10-18T21:16:30.341Z,8.56
2022-10-18T21:19:04.829Z,8.52
2022-10-18T21:21:31.750Z,8.49
2022-10-18T21:24:01.194Z,8.47
2022-10-18T21:26:30.695Z,8.40
2022-10-18T21:28:59.120Z,8.40
2022-10-18T21:31:31.884Z,8.39
2022-10-18T21:34:01.155Z,8.36
2022-10-18T21:36:31.854Z,8.34
2022-10-18T21:38:58.556Z,8.32
2022-10-18T21:41:25.480Z,8.29
2022-10-18T21:43:54.320Z,8.25
2022-10-18T21:46:21.802Z,8.23
2022-10-18T21:48:52.016Z,8.20
2022-10-18T21:51:20.622Z,8.18
2022-10-18T21:53:49.931Z,8.15
2022-10-18T21:56:22.144Z,8.09
2022-10-18T21:58:49.163Z,8.06
2022-10-18T22:01:23.237Z,8.03
2022-10-18T22:03:51.991Z,8.00
2022-10-18T22:06:20.329Z,7.96
2022-10-18T22:08:52.780Z,7.92
2022-10-18T22:11:23.143Z,7.90
2022-10-18T22:13:49.937Z,7.87
2022-10-18T22:16:16.852Z,7.86
2022-10-18T22:18:46.629Z,7.87
2022-10-18T22:21:15.701Z,7.88
2022-10-18T22:23:48.592Z,7.89
2022-10-18T22:26:19.561Z,7.89
2022-10-18T22:28:46.764Z,7.86
2022-10-18T22:31:18.779Z,7.83
2022-10-18T22:33:46.438Z,7.82
2022-10-18T22:36:13.369Z,7.80
2022-10-18T22:38:40.128Z,7.76
2022-10-18T22:41:09.025Z,7.74
2022-10-18T22:43:36.087Z,7.70
2022-10-18T22:46:05.881Z,7.67
2022-10-18T22:48:33.392Z,7.63
2022-10-18T22:51:00.822Z,7.58
2022-10-18T22:53:27.825Z,7.59
2022-10-18T22:55:54.718Z,7.59
2022-10-18T22:58:21.747Z,7.58
2022-10-18T23:00:48.560Z,7.56
2022-10-18T23:03:18.625Z,7.57
2022-10-18T23:05:46.373Z,7.56
2022-10-18T23:08:13.993Z,7.51
2022-10-18T23:10:42.054Z,7.49
2022-10-18T23:13:10.130Z,7.49
2022-10-18T23:15:38.527Z,7.48
2022-10-18T23:18:05.514Z,7.51
2022-10-18T23:20:32.079Z,7.51
2022-10-18T23:22:58.666Z,7.49
2022-10-18T23:25:26.577Z,7.46
2022-10-18T23:27:53.495Z,7.46
2022-10-18T23:30:20.538Z,7.47
2022-10-18T23:32:47.299Z,7.47
2022-10-18T23:35:13.964Z,7.46
2022-10-18T23:37:40.538Z,7.44
2022-10-18T23:40:08.745Z,7.41
2022-10-18T23:42:35.278Z,7.38
2022-10-18T23:45:02.139Z,7.36
2022-10-18T23:47:28.755Z,7.33
2022-10-18T23:49:56.715Z,7.31
2022-10-18T23:52:24.337Z,7.29
2022-10-18T23:54:50.991Z,7.20
2022-10-18T23:57:17.525Z,7.18
2022-10-18T23:59:44.090Z,7.16
